Time;durP1;ratioP1;P1;durP2;ratioP2;P2;SDS_P1;SDS_P2;PMS_P1;PMS_P2;Temp;Humidity;BMP_temperature;BMP_pressure;BME280_temperature;BME280_humidity;BME280_pressure;Samples;Min_cycle;Max_cycle;Signal;HPM_P1;HPM_P2
2021/11/28 00:01:05;;;;;;;17.92;14.73;;;;;;;5.02;68.27;99343.91;1816628;79;21085;-71
2021/11/28 00:03:32;;;;;;;17.42;14.93;;;;;;;5.00;68.17;99335.41;1818067;79;21499;-71
2021/11/28 00:06:04;;;;;;;19.92;14.53;;;;;;;5.00;68.19;99334.91;1817970;79;21030;-71
2021/11/28 00:08:58;;;;;;;16.30;13.45;;;;;;;5.00;68.24;99331.44;1817968;79;21007;-71
2021/11/28 00:11:20;;;;;;;16.70;13.58;;;;;;;4.93;68.29;99336.41;1813784;79;20948;-71
2021/11/28 00:16:12;;;;;;;16.45;12.37;;;;;;;4.83;68.40;99348.20;1817753;79;21050;-71
2021/11/28 00:18:40;;;;;;;16.60;13.70;;;;;;;4.75;68.46;99353.16;1784324;79;21042;-72
2021/11/28 00:21:07;;;;;;;15.68;13.25;;;;;;;4.64;68.57;99360.98;1785941;79;20947;-72
2021/11/28 00:23:35;;;;;;;21.02;13.03;;;;;;;4.59;68.78;99369.37;1785991;79;21039;-72
2021/11/28 00:26:04;;;;;;;19.05;14.35;;;;;;;4.57;68.81;99376.22;1786093;79;21010;-71
2021/11/28 00:28:33;;;;;;;21.48;15.18;;;;;;;4.58;68.95;99373.87;1785867;79;20975;-72
2021/11/28 00:31:01;;;;;;;18.05;14.50;;;;;;;4.66;69.09;99376.06;1785909;79;21608;-72
2021/11/28 00:33:28;;;;;;;19.20;14.55;;;;;;;4.80;69.19;99377.01;1785807;80;21054;-70
2021/11/28 00:35:55;;;;;;;21.65;15.83;;;;;;;4.91;69.25;99379.53;1791574;78;20998;-70
2021/11/28 00:38:22;;;;;;;19.85;14.63;;;;;;;4.94;69.24;99379.04;1823621;78;21006;-70
2021/11/28 00:40:49;;;;;;;17.67;14.18;;;;;;;5.01;69.25;99371.43;1812545;79;21593;-70
2021/11/28 00:43:19;;;;;;;21.20;14.70;;;;;;;4.96;69.13;99378.77;1812422;79;21129;-71
2021/11/28 00:45:46;;;;;;;18.25;14.45;;;;;;;4.90;69.21;99381.09;1791210;78;20988;-70
2021/11/28 00:48:15;;;;;;;20.20;13.98;;;;;;;4.91;69.29;99376.09;1811466;79;20948;-71
2021/11/28 00:50:45;;;;;;;23.60;14.03;;;;;;;4.99;69.37;99388.07;1812383;78;20979;-71
2021/11/28 00:53:16;;;;;;;19.73;14.47;;;;;;;5.08;69.51;99385.26;1811845;79;20987;-70
2021/11/28 00:55:43;;;;;;;16.00;13.83;;;;;;;5.16;69.48;99394.06;1812709;78;21124;-70
2021/11/28 00:58:10;;;;;;;18.48;14.95;;;;;;;5.19;69.42;99394.89;1808301;79;20991;-70
2021/11/28 01:00:39;;;;;;;18.70;15.55;;;;;;;5.16;69.25;99390.89;1812666;78;21102;-71
2021/11/28 01:03:06;;;;;;;21.70;15.08;;;;;;;5.17;69.31;99386.41;1780935;79;21102;-70
2021/11/28 01:05:36;;;;;;;19.50;15.60;;;;;;;5.23;69.40;99377.48;1812502;78;20943;-71
2021/11/28 01:08:05;;;;;;;18.70;14.58;;;;;;;5.30;69.31;99374.09;1812435;78;21807;-71
2021/11/28 01:10:33;;;;;;;21.90;14.53;;;;;;;5.36;69.35;99382.37;1812395;78;20936;-71
2021/11/28 01:13:00;;;;;;;17.27;13.78;;;;;;;5.43;69.36;99372.89;1812262;78;22396;-72
2021/11/28 01:15:27;;;;;;;20.17;14.80;;;;;;;5.48;69.38;99372.92;1812443;79;20968;-72
2021/11/28 01:17:54;;;;;;;19.40;14.25;;;;;;;5.57;69.47;99377.23;1812398;79;21050;-72
2021/11/28 01:20:21;;;;;;;17.00;14.28;;;;;;;5.66;69.47;99378.38;1812597;79;21148;-72
2021/11/28 01:22:48;;;;;;;19.27;14.70;;;;;;;5.75;69.34;99387.43;1812149;79;20945;-72
2021/11/28 01:25:14;;;;;;;17.48;14.40;;;;;;;5.81;69.28;99382.98;1812680;79;21510;-73
2021/11/28 01:27:42;;;;;;;22.93;14.38;;;;;;;5.85;69.25;99379.55;1812272;79;21483;-72
2021/11/28 01:30:10;;;;;;;21.70;14.60;;;;;;;5.90;69.17;99381.98;1812585;79;21224;-72
2021/11/28 01:32:38;;;;;;;21.77;14.98;;;;;;;5.91;69.08;99387.02;1812114;78;21127;-72
2021/11/28 01:35:07;;;;;;;19.82;13.30;;;;;;;5.94;68.84;99380.45;1812533;79;21063;-72
2021/11/28 01:37:35;;;;;;;20.27;13.45;;;;;;;5.93;68.71;99373.56;1812259;79;20972;-71
2021/11/28 01:40:08;;;;;;;15.23;13.10;;;;;;;5.90;68.55;99378.02;1812621;79;21499;-72
2021/11/28 01:42:46;;;;;;;17.50;13.40;;;;;;;5.90;68.52;99378.02;1811572;79;20945;-71
2021/11/28 01:45:18;;;;;;;16.40;13.10;;;;;;;5.91;68.44;99379.60;1812583;79;21106;-71
2021/11/28 01:47:45;;;;;;;18.13;12.10;;;;;;;5.88;68.31;99384.34;1811629;79;21067;-71
2021/11/28 01:50:11;;;;;;;30.17;13.25;;;;;;;5.76;68.23;99381.10;1812678;78;21011;-71
2021/11/28 01:52:38;;;;;;;16.10;12.25;;;;;;;5.66;68.24;99381.02;1810702;79;21118;-71
2021/11/28 01:55:11;;;;;;;14.23;12.73;;;;;;;5.63;68.22;99384.18;1812476;78;21566;-70
2021/11/28 01:57:38;;;;;;;17.90;11.55;;;;;;;5.49;68.09;99381.66;1811018;79;21118;-71
2021/11/28 02:00:13;;;;;;;17.02;12.28;;;;;;;5.31;68.13;99382.31;1780425;79;21118;-70
2021/11/28 02:02:45;;;;;;;20.75;12.18;;;;;;;5.21;68.28;99398.09;1780223;79;21008;-71
2021/11/28 02:05:15;;;;;;;15.15;11.50;;;;;;;5.18;68.44;99384.03;1786168;80;20987;-72
2021/11/28 02:07:43;;;;;;;14.25;11.60;;;;;;;5.17;68.42;99383.77;1785897;80;21486;-72
2021/11/28 02:10:11;;;;;;;14.95;12.03;;;;;;;5.10;68.39;99376.53;1785803;80;21994;-72
2021/11/28 02:12:38;;;;;;;16.00;11.63;;;;;;;4.98;68.36;99380.66;1751673;80;21118;-72
2021/11/28 02:15:08;;;;;;;14.80;11.93;;;;;;;4.89;68.45;99376.32;1780555;77;20995;-72
2021/11/28 02:17:37;;;;;;;13.32;11.57;;;;;;;4.81;68.52;99368.05;1780758;80;21468;-71
2021/11/28 02:20:06;;;;;;;13.05;10.88;;;;;;;4.74;68.56;99370.06;1780855;80;21082;-71
2021/11/28 02:22:33;;;;;;;13.25;10.63;;;;;;;4.67;68.68;99368.92;1780702;80;21136;-70
2021/11/28 02:25:06;;;;;;;13.08;10.58;;;;;;;4.55;68.77;99366.42;1791553;78;21061;-71
2021/11/28 02:27:32;;;;;;;12.95;10.50;;;;;;;4.44;68.92;99361.54;1791584;78;20980;-71
2021/11/28 02:29:59;;;;;;;13.95;11.10;;;;;;;4.35;69.03;99366.97;1791389;78;21026;-71
2021/11/28 02:32:26;;;;;;;14.45;11.97;;;;;;;4.29;69.18;99373.23;1760675;78;20946;-71
2021/11/28 02:34:53;;;;;;;15.85;11.90;;;;;;;4.32;69.29;99378.56;1791465;78;21167;-71
2021/11/28 02:37:20;;;;;;;14.50;11.95;;;;;;;4.38;69.34;99374.94;1791726;80;20994;-71
2021/11/28 02:39:47;;;;;;;16.20;12.75;;;;;;;4.45;69.36;99371.06;1791453;78;20982;-71
2021/11/28 02:42:20;;;;;;;16.97;13.03;;;;;;;4.55;69.44;99372.24;1791312;78;21093;-70
2021/11/28 02:44:47;;;;;;;16.55;12.58;;;;;;;4.65;69.34;99372.36;1805563;78;21065;-70
2021/11/28 02:47:14;;;;;;;16.48;13.03;;;;;;;4.76;69.34;99376.70;1805993;79;21821;-71
2021/11/28 02:49:40;;;;;;;14.53;12.53;;;;;;;4.83;69.22;99375.19;1818069;79;21058;-72
2021/11/28 02:52:10;;;;;;;15.55;11.70;;;;;;;4.84;69.09;99362.27;1817749;79;21063;-72
2021/11/28 02:54:37;;;;;;;14.73;12.10;;;;;;;4.86;69.05;99356.97;1818245;79;20956;-72
2021/11/28 02:57:08;;;;;;;13.88;11.40;;;;;;;4.75;68.80;99355.28;1818224;79;20984;-72
2021/11/28 02:59:36;;;;;;;15.00;10.95;;;;;;;4.56;68.81;99354.80;1789233;79;21458;-72
2021/11/28 03:02:04;;;;;;;15.75;12.40;;;;;;;4.37;68.90;99346.89;1818135;79;21553;-72
2021/11/28 03:04:47;;;;;;;15.65;12.25;;;;;;;4.20;69.07;99345.09;1816855;79;20928;-70
2021/11/28 03:07:18;;;;;;;14.53;11.22;;;;;;;4.06;69.21;99341.74;1818072;79;21018;-72
2021/11/28 03:09:46;;;;;;;15.45;12.15;;;;;;;3.97;69.38;99354.03;1818194;79;20932;-71
2021/11/28 03:12:13;;;;;;;14.20;11.88;;;;;;;3.91;69.55;99362.13;1817932;79;21086;-71
2021/11/28 03:14:41;;;;;;;14.30;11.40;;;;;;;3.94;69.71;99363.76;1803297;79;20991;-71
2021/11/28 03:17:08;;;;;;;16.42;11.85;;;;;;;3.94;69.80;99357.16;1785969;79;21110;-71
2021/11/28 03:19:35;;;;;;;17.02;11.43;;;;;;;4.00;70.00;99356.19;1796357;79;21038;-71
2021/11/28 03:22:04;;;;;;;17.25;12.53;;;;;;;4.11;70.06;99362.41;1791357;78;21057;-71
2021/11/28 03:24:30;;;;;;;15.68;11.85;;;;;;;4.23;70.13;99358.34;1791369;78;21084;-71
2021/11/28 03:26:59;;;;;;;12.78;10.90;;;;;;;4.32;70.09;99364.02;1791299;78;20982;-72
2021/11/28 03:29:27;;;;;;;17.05;11.88;;;;;;;4.37;70.13;99364.86;1791515;78;20986;-72
2021/11/28 03:32:07;;;;;;;15.53;11.95;;;;;;;4.42;70.05;99364.15;1791182;78;20958;-70
2021/11/28 03:34:53;;;;;;;17.57;12.53;;;;;;;4.46;69.97;99367.89;1791606;78;21046;-74
2021/11/28 03:37:22;;;;;;;15.85;13.22;;;;;;;4.53;70.06;99369.83;1791368;78;21510;-71
2021/11/28 03:39:49;;;;;;;16.97;12.33;;;;;;;4.63;70.07;99370.47;1791909;78;20930;-72
2021/11/28 03:42:17;;;;;;;14.68;11.73;;;;;;;4.73;70.02;99369.79;1791247;78;20985;-71
2021/11/28 03:44:46;;;;;;;18.12;12.80;;;;;;;4.82;69.97;99373.08;1791739;78;21002;-71
2021/11/28 03:47:17;;;;;;;20.48;11.00;;;;;;;4.86;69.86;99381.31;1792613;79;20996;-71
2021/11/28 03:49:46;;;;;;;18.60;12.45;;;;;;;4.86;69.73;99384.75;1806061;79;21298;-71
2021/11/28 03:52:14;;;;;;;16.60;12.15;;;;;;;4.84;69.63;99394.80;1799942;78;21026;-71
2021/11/28 03:54:41;;;;;;;15.58;10.82;;;;;;;4.88;69.64;99407.81;1812433;79;21019;-71
2021/11/28 03:57:08;;;;;;;21.62;12.30;;;;;;;4.89;69.53;99408.08;1811828;78;21036;-71
2021/11/28 03:59:37;;;;;;;12.10;10.68;;;;;;;4.85;69.45;99403.00;1812560;79;21177;-71
2021/11/28 04:02:04;;;;;;;14.38;11.73;;;;;;;4.84;69.45;99387.39;1812462;78;21810;-71
2021/11/28 04:04:33;;;;;;;13.85;10.03;;;;;;;4.78;69.47;99377.27;1812335;78;21004;-71
2021/11/28 04:07:06;;;;;;;12.20;10.20;;;;;;;4.67;69.49;99363.14;1812185;79;20960;-71
2021/11/28 04:09:34;;;;;;;16.02;12.45;;;;;;;4.52;69.62;99363.48;1812512;79;21067;-71
2021/11/28 04:12:07;;;;;;;15.35;11.33;;;;;;;4.42;69.78;99364.94;1812226;78;21613;-71
2021/11/28 04:14:34;;;;;;;16.05;11.78;;;;;;;4.36;69.90;99369.88;1812489;78;21107;-71
2021/11/28 04:17:02;;;;;;;13.48;11.03;;;;;;;4.32;69.98;99368.78;1812171;79;21542;-71
2021/11/28 04:19:32;;;;;;;11.28;9.95;;;;;;;4.25;70.00;99368.16;1812426;79;21032;-72
2021/11/28 04:21:58;;;;;;;13.03;10.30;;;;;;;4.20;70.12;99370.73;1812473;79;20952;-71
2021/11/28 04:24:30;;;;;;;12.47;10.48;;;;;;;4.14;70.12;99377.78;1812527;79;21086;-72
2021/11/28 04:26:57;;;;;;;15.70;12.05;;;;;;;4.09;70.18;99382.21;1812259;78;21063;-71
2021/11/28 04:29:25;;;;;;;13.48;11.30;;;;;;;4.05;70.26;99385.03;1812219;79;20913;-71
2021/11/28 04:31:53;;;;;;;15.93;12.65;;;;;;;4.06;70.38;99391.42;1812480;79;20956;-71
2021/11/28 04:34:19;;;;;;;17.85;12.75;;;;;;;4.14;70.47;99398.13;1812180;79;21039;-72
2021/11/28 04:36:46;;;;;;;14.55;12.07;;;;;;;4.22;70.40;99396.41;1812711;79;21032;-71
2021/11/28 04:39:15;;;;;;;17.70;12.90;;;;;;;4.28;70.39;99390.64;1812298;79;21076;-72
2021/11/28 04:41:42;;;;;;;17.00;12.43;;;;;;;4.34;70.36;99381.73;1812484;78;21031;-71
2021/11/28 04:44:11;;;;;;;11.48;9.78;;;;;;;4.41;70.35;99385.83;1812150;79;20988;-72
2021/11/28 04:46:38;;;;;;;12.03;9.38;;;;;;;4.44;70.26;99389.30;1812489;79;21007;-72
2021/11/28 04:49:05;;;;;;;14.13;10.35;;;;;;;4.39;70.26;99387.11;1812113;79;20972;-71
2021/11/28 04:51:34;;;;;;;14.80;11.88;;;;;;;4.29;70.33;99378.52;1812554;78;21042;-72
2021/11/28 04:54:01;;;;;;;14.45;10.78;;;;;;;4.22;70.46;99385.83;1812548;79;21031;-72
2021/11/28 04:56:28;;;;;;;12.40;10.32;;;;;;;4.18;70.53;99382.88;1812721;79;21428;-72
2021/11/28 04:58:55;;;;;;;13.18;10.28;;;;;;;4.11;70.63;99375.62;1812595;79;21157;-72
2021/11/28 05:01:24;;;;;;;13.60;11.45;;;;;;;4.07;70.71;99378.48;1812498;79;20979;-72
2021/11/28 05:03:53;;;;;;;12.60;10.70;;;;;;;4.05;70.83;99381.90;1811937;79;21147;-72
2021/11/28 05:06:27;;;;;;;12.95;10.68;;;;;;;4.05;70.92;99385.86;1769732;79;20944;-72
2021/11/28 05:09:01;;;;;;;15.30;12.20;;;;;;;4.03;70.98;99388.47;1812116;79;21051;-72
2021/11/28 05:11:28;;;;;;;21.02;11.83;;;;;;;4.05;71.11;99391.64;1812521;79;20948;-72
2021/11/28 05:13:57;;;;;;;13.72;10.23;;;;;;;4.17;71.24;99392.36;1783972;79;20999;-72
2021/11/28 05:16:25;;;;;;;11.10;8.85;;;;;;;4.25;71.13;99395.92;1778735;79;22122;-71
2021/11/28 05:18:56;;;;;;;11.33;9.18;;;;;;;4.25;71.06;99398.56;1773409;79;21455;-71
2021/11/28 05:21:25;;;;;;;11.65;9.13;;;;;;;4.17;71.06;99385.22;1807124;79;21040;-71
2021/11/28 05:23:52;;;;;;;11.10;8.88;;;;;;;4.08;71.23;99388.02;1812282;79;21035;-73
2021/11/28 05:26:18;;;;;;;11.30;9.48;;;;;;;4.00;71.33;99387.89;1788264;79;21437;-71
2021/11/28 05:28:46;;;;;;;12.10;8.80;;;;;;;3.94;71.40;99390.17;1780584;80;21105;-71
2021/11/28 05:31:17;;;;;;;10.72;8.58;;;;;;;3.92;71.48;99395.45;1796970;79;21111;-72
2021/11/28 05:34:01;;;;;;;14.35;10.60;;;;;;;3.89;71.58;99394.08;1774156;79;21074;-72
2021/11/28 05:36:44;;;;;;;15.80;11.25;;;;;;;3.87;71.73;99402.75;1764482;81;21025;-72
2021/11/28 05:39:11;;;;;;;15.75;10.93;;;;;;;3.95;71.79;99413.46;1788236;79;21030;-72
2021/11/28 05:41:38;;;;;;;15.10;10.82;;;;;;;4.05;71.93;99418.06;1812334;79;21130;-71
2021/11/28 05:44:06;;;;;;;12.05;9.70;;;;;;;4.15;71.92;99412.95;1812244;79;20984;-72
2021/11/28 05:46:36;;;;;;;11.75;9.90;;;;;;;4.22;71.87;99410.41;1811266;79;21523;-72
2021/11/28 05:49:17;;;;;;;14.10;11.35;;;;;;;4.21;71.75;99408.83;1735233;79;20968;-72
2021/11/28 05:51:51;;;;;;;11.10;9.10;;;;;;;4.18;71.74;99415.12;1776447;79;21027;-72
2021/11/28 05:54:20;;;;;;;13.78;11.08;;;;;;;4.18;71.73;99407.98;1812331;79;21130;-72
2021/11/28 05:56:47;;;;;;;12.70;10.25;;;;;;;4.17;71.69;99406.89;1812381;79;21397;-72
2021/11/28 05:59:14;;;;;;;12.85;10.20;;;;;;;4.15;71.74;99406.35;1812431;79;21002;-72
2021/11/28 06:01:40;;;;;;;12.98;9.93;;;;;;;4.14;71.80;99409.48;1812483;79;21124;-72
2021/11/28 06:04:07;;;;;;;13.18;9.30;;;;;;;4.14;71.87;99418.73;1812578;79;21158;-71
2021/11/28 06:06:42;;;;;;;14.95;10.65;;;;;;;4.13;71.94;99407.90;1810586;79;21151;-72
2021/11/28 06:09:10;;;;;;;15.15;10.35;;;;;;;4.17;72.01;99402.92;1812214;79;21106;-72
2021/11/28 06:11:37;;;;;;;12.47;10.20;;;;;;;4.21;71.98;99398.74;1812342;79;21435;-72
2021/11/28 06:14:04;;;;;;;15.20;10.60;;;;;;;4.24;72.03;99407.52;1812267;79;21475;-72
2021/11/28 06:16:49;;;;;;;13.10;10.28;;;;;;;4.26;71.96;99400.16;1811915;79;21043;-72
2021/11/28 06:19:21;;;;;;;17.55;10.82;;;;;;;4.24;71.95;99407.52;1767989;79;21211;-71
2021/11/28 06:21:59;;;;;;;15.20;11.40;;;;;;;4.23;72.05;99408.03;1791829;79;21522;-74
2021/11/28 06:24:28;;;;;;;14.33;11.10;;;;;;;4.27;72.11;99409.67;1795260;79;21049;-71
2021/11/28 06:27:08;;;;;;;12.40;9.98;;;;;;;4.29;72.12;99406.27;1796214;79;21085;-72
2021/11/28 06:29:36;;;;;;;12.03;9.10;;;;;;;4.35;72.16;99401.86;1796287;79;21506;-71
2021/11/28 06:32:03;;;;;;;12.65;9.75;;;;;;;4.36;72.00;99421.44;1789240;79;21047;-71
2021/11/28 06:34:38;;;;;;;13.43;10.70;;;;;;;4.32;71.91;99408.96;1778587;80;21112;-71
2021/11/28 06:37:23;;;;;;;12.30;10.03;;;;;;;4.29;71.92;99417.38;1778742;79;21584;-72
2021/11/28 06:40:11;;;;;;;13.00;10.40;;;;;;;4.25;71.94;99419.70;1711921;83;21171;-74
2021/11/28 06:42:40;;;;;;;11.15;9.48;;;;;;;4.23;72.03;99421.25;1713175;82;21089;-73
2021/11/28 06:45:08;;;;;;;15.63;11.18;;;;;;;4.26;72.13;99430.55;1738019;80;21202;-72
2021/11/28 06:47:35;;;;;;;16.52;10.93;;;;;;;4.33;72.19;99435.66;1788821;79;21621;-71
2021/11/28 06:50:03;;;;;;;15.25;10.50;;;;;;;4.46;72.33;99427.38;1812231;78;21487;-73
2021/11/28 06:52:32;;;;;;;11.95;9.75;;;;;;;4.57;72.24;99435.72;1797205;79;20992;-73
2021/11/28 06:55:17;;;;;;;11.03;9.05;;;;;;;4.66;72.17;99422.34;1812490;79;21130;-72
2021/11/28 06:57:45;;;;;;;10.80;8.63;;;;;;;4.66;71.99;99421.03;1811773;79;21094;-72
2021/11/28 07:00:13;;;;;;;10.50;8.30;;;;;;;4.62;71.97;99414.64;1812258;79;21476;-73
2021/11/28 07:02:40;;;;;;;11.50;9.85;;;;;;;4.61;72.01;99410.92;1780358;79;20999;-72
2021/11/28 07:05:22;;;;;;;11.08;9.05;;;;;;;4.59;72.02;99403.22;1756182;79;21426;-72
2021/11/28 07:07:52;;;;;;;10.65;8.83;;;;;;;4.60;72.08;99402.70;1812304;79;21062;-71
2021/11/28 07:12:47;;;;;;;11.73;10.20;;;;;;;4.67;72.20;99409.42;1785019;79;21455;-72
2021/11/28 07:15:16;;;;;;;16.17;11.30;;;;;;;4.75;72.26;99407.39;1792771;79;21082;-71
2021/11/28 07:17:43;;;;;;;14.30;10.98;;;;;;;4.79;72.27;99416.42;1812444;79;21312;-72
2021/11/28 07:20:18;;;;;;;11.55;10.35;;;;;;;4.85;72.32;99412.80;1807223;79;21071;-73
2021/11/28 07:22:48;;;;;;;10.25;9.15;;;;;;;4.92;72.31;99408.91;1812378;78;20912;-72
2021/11/28 07:25:15;;;;;;;12.98;10.10;;;;;;;4.99;72.32;99407.39;1812460;79;20980;-71
2021/11/28 07:27:43;;;;;;;11.48;9.63;;;;;;;5.04;72.33;99408.78;1811797;79;21023;-71
2021/11/28 07:30:11;;;;;;;13.78;10.48;;;;;;;5.07;72.35;99410.14;1812431;79;21019;-73
2021/11/28 07:32:40;;;;;;;11.80;10.20;;;;;;;5.09;72.35;99408.81;1812494;79;21034;-71
2021/11/28 07:35:25;;;;;;;10.05;7.87;;;;;;;5.15;72.31;99411.80;1812445;78;21887;-72
2021/11/28 07:38:06;;;;;;;12.13;9.55;;;;;;;5.22;72.43;99420.86;1811050;79;20932;-72
2021/11/28 07:40:33;;;;;;;13.15;10.40;;;;;;;5.32;72.40;99422.81;1800175;79;21027;-72
2021/11/28 07:43:03;;;;;;;12.07;8.53;;;;;;;5.44;72.54;99419.50;1790655;80;21073;-71
2021/11/28 07:45:47;;;;;;;12.25;9.80;;;;;;;5.57;72.47;99428.89;1780179;79;20988;-71
2021/11/28 07:48:32;;;;;;;10.40;8.68;;;;;;;5.66;72.45;99419.44;1800134;79;21147;-71
2021/11/28 07:51:13;;;;;;;10.65;8.53;;;;;;;5.73;72.35;99421.34;1806045;79;21053;-72
2021/11/28 07:53:41;;;;;;;13.75;9.50;;;;;;;5.75;72.10;99409.95;1805980;79;21075;-72
2021/11/28 07:56:08;;;;;;;13.13;9.93;;;;;;;5.73;72.01;99416.58;1818514;79;20986;-72
2021/11/28 07:58:53;;;;;;;9.65;8.28;;;;;;;5.72;71.92;99415.75;1817454;79;20992;-72
2021/11/28 08:01:22;;;;;;;10.45;7.92;;;;;;;5.78;71.93;99413.42;1816390;79;21148;-73
2021/11/28 08:03:51;;;;;;;11.68;9.25;;;;;;;5.79;71.75;99415.54;1816655;79;21003;-72
2021/11/28 08:06:20;;;;;;;9.70;8.28;;;;;;;5.72;71.58;99403.83;1766448;79;21026;-72
2021/11/28 08:08:57;;;;;;;14.10;10.50;;;;;;;5.66;71.56;99404.87;1735206;81;21010;-72
2021/11/28 08:11:33;;;;;;;11.70;9.13;;;;;;;5.60;71.60;99399.25;1817355;79;20939;-72
2021/11/28 08:14:00;;;;;;;12.05;9.65;;;;;;;5.61;71.76;99410.91;1817716;79;21187;-72
2021/11/28 08:16:27;;;;;;;11.28;8.88;;;;;;;5.67;71.87;99411.75;1818393;79;20936;-72
2021/11/28 08:18:54;;;;;;;12.50;9.25;;;;;;;5.74;71.82;99408.36;1818136;79;21487;-73
2021/11/28 08:21:26;;;;;;;13.70;10.88;;;;;;;5.75;71.78;99415.25;1818201;79;21081;-73
2021/11/28 08:23:50;;;;;;;11.03;8.73;;;;;;;5.79;71.78;99418.19;1817690;79;21043;-73
2021/11/28 08:26:18;;;;;;;13.10;9.43;;;;;;;5.88;71.74;99425.95;1818228;79;21163;-71
2021/11/28 08:28:45;;;;;;;9.93;7.85;;;;;;;5.92;71.68;99422.27;1818029;79;20978;-73
2021/11/28 08:31:12;;;;;;;10.88;8.33;;;;;;;5.94;71.67;99423.65;1818101;79;20964;-72
2021/11/28 08:33:57;;;;;;;12.43;10.28;;;;;;;5.96;71.69;99424.20;1818004;79;20980;-71
2021/11/28 08:36:34;;;;;;;12.80;9.85;;;;;;;5.97;71.62;99418.38;1817375;79;20992;-71
2021/11/28 08:39:01;;;;;;;13.13;10.65;;;;;;;6.02;71.72;99406.47;1818023;79;21153;-71
2021/11/28 08:41:28;;;;;;;12.85;10.60;;;;;;;6.12;71.89;99413.19;1817969;79;20964;-72
2021/11/28 08:43:56;;;;;;;13.65;11.20;;;;;;;6.20;71.91;99410.04;1818134;79;21411;-71
2021/11/28 08:46:25;;;;;;;12.20;9.85;;;;;;;6.29;71.97;99405.86;1818162;79;21558;-72
2021/11/28 08:48:53;;;;;;;11.05;9.25;;;;;;;6.37;71.71;99410.41;1817812;79;20980;-72
2021/11/28 08:51:22;;;;;;;13.48;10.65;;;;;;;6.37;71.69;99397.94;1818287;79;21166;-72
2021/11/28 08:53:50;;;;;;;11.60;9.78;;;;;;;6.38;71.64;99402.70;1818016;79;21019;-72
2021/11/28 08:56:16;;;;;;;16.15;11.70;;;;;;;6.43;71.66;99402.75;1818456;79;21543;-72
2021/11/28 08:58:43;;;;;;;12.20;10.00;;;;;;;6.55;71.57;99394.85;1817361;79;21035;-72
2021/11/28 09:01:10;;;;;;;12.82;10.68;;;;;;;6.68;71.57;99394.91;1817358;79;22082;-72
2021/11/28 09:03:38;;;;;;;14.98;11.78;;;;;;;6.73;71.47;99395.45;1809634;79;20935;-72
2021/11/28 09:06:05;;;;;;;11.35;8.78;;;;;;;6.74;71.43;99399.16;1807864;79;21553;-73
2021/11/28 09:08:34;;;;;;;18.15;12.05;;;;;;;6.83;71.53;99397.34;1804328;77;20998;-72
2021/11/28 09:11:04;;;;;;;13.53;11.25;;;;;;;6.91;71.55;99398.16;1791533;80;21054;-72
2021/11/28 09:13:32;;;;;;;11.35;9.95;;;;;;;6.99;71.43;99397.13;1791527;78;20986;-71
2021/11/28 09:15:59;;;;;;;12.25;9.03;;;;;;;7.03;71.39;99392.88;1781074;79;21107;-72
2021/11/28 09:18:33;;;;;;;12.78;10.53;;;;;;;7.06;71.32;99390.23;1810644;79;21090;-72
2021/11/28 09:20:59;;;;;;;10.03;8.18;;;;;;;7.04;71.25;99385.20;1801041;78;21033;-72
2021/11/28 09:26:09;;;;;;;12.33;10.45;;;;;;;7.12;71.26;99373.80;1790276;80;21548;-72
2021/11/28 09:28:39;;;;;;;15.85;11.55;;;;;;;7.12;71.19;99371.94;1805619;79;21132;-72
2021/11/28 09:31:10;;;;;;;14.10;11.35;;;;;;;7.14;71.28;99370.33;1806144;79;21063;-71
2021/11/28 09:33:38;;;;;;;13.22;11.55;;;;;;;7.21;71.27;99371.69;1805943;79;20961;-73
2021/11/28 09:36:05;;;;;;;13.28;10.70;;;;;;;7.25;71.24;99378.59;1806493;79;21036;-72
2021/11/28 09:38:32;;;;;;;16.00;12.37;;;;;;;7.26;71.15;99368.23;1805923;79;20993;-72
2021/11/28 09:41:04;;;;;;;13.18;10.65;;;;;;;7.28;71.17;99373.55;1806222;79;21052;-72
2021/11/28 09:43:32;;;;;;;14.33;11.30;;;;;;;7.34;71.19;99369.05;1806317;79;21539;-72
2021/11/28 09:45:59;;;;;;;11.75;9.65;;;;;;;7.41;71.33;99365.60;1818295;79;21066;-72
2021/11/28 09:48:27;;;;;;;12.93;10.00;;;;;;;7.51;71.43;99374.90;1817198;79;20956;-73
2021/11/28 09:50:54;;;;;;;12.37;10.03;;;;;;;7.50;71.51;99369.33;1782519;79;21078;-72
2021/11/28 09:53:21;;;;;;;13.45;9.95;;;;;;;7.59;71.59;99368.78;1761976;80;21151;-73
2021/11/28 09:55:48;;;;;;;13.40;10.18;;;;;;;7.78;71.16;99363.20;1790048;79;20963;-73
2021/11/28 09:58:15;;;;;;;13.00;10.45;;;;;;;7.70;71.32;99353.91;1788507;79;21016;-73
2021/11/28 10:00:42;;;;;;;12.95;10.20;;;;;;;7.80;70.96;99342.98;1818512;79;21011;-73
2021/11/28 10:03:10;;;;;;;13.18;10.68;;;;;;;7.80;70.97;99342.47;1817976;78;20994;-73
2021/11/28 10:05:37;;;;;;;14.00;10.93;;;;;;;7.83;70.80;99339.78;1818285;79;21137;-72
2021/11/28 10:08:04;;;;;;;14.90;11.53;;;;;;;7.84;70.67;99341.40;1817885;78;21526;-73
2021/11/28 10:10:32;;;;;;;12.07;9.35;;;;;;;7.85;70.72;99338.46;1817199;78;21459;-73
2021/11/28 10:12:59;;;;;;;13.62;11.15;;;;;;;7.85;70.67;99345.64;1762922;79;20937;-72
2021/11/28 10:15:28;;;;;;;14.83;11.68;;;;;;;7.84;70.68;99336.08;1817904;78;21499;-72
2021/11/28 10:18:01;;;;;;;14.70;11.90;;;;;;;7.83;70.72;99337.13;1817640;79;21554;-71
2021/11/28 10:20:28;;;;;;;14.35;11.08;;;;;;;7.84;70.77;99338.20;1818381;78;20992;-72
2021/11/28 10:22:55;;;;;;;13.15;10.80;;;;;;;7.86;70.90;99334.73;1816870;79;21003;-72
2021/11/28 10:25:28;;;;;;;14.18;11.88;;;;;;;7.89;70.95;99342.17;1818728;79;21074;-72
2021/11/28 10:27:58;;;;;;;13.80;11.05;;;;;;;7.97;71.06;99346.16;1818186;78;21459;-72
2021/11/28 10:30:35;;;;;;;13.60;11.97;;;;;;;8.09;71.09;99338.66;1817968;79;21786;-72
2021/11/28 10:33:15;;;;;;;16.23;13.32;;;;;;;8.12;70.95;99335.47;1817862;79;20995;-73
2021/11/28 10:36:10;;;;;;;15.80;12.70;;;;;;;8.14;70.99;99339.20;1818388;79;21016;-72
2021/11/28 10:38:40;;;;;;;14.28;11.93;;;;;;;8.29;71.09;99338.34;1817670;78;20991;-72
2021/11/28 10:41:27;;;;;;;15.50;12.63;;;;;;;8.43;70.98;99336.75;1818730;78;20940;-72
2021/11/28 10:43:54;;;;;;;18.30;13.93;;;;;;;8.54;71.08;99330.30;1817523;78;21471;-72
2021/11/28 10:46:30;;;;;;;15.45;12.20;;;;;;;8.63;70.91;99324.67;1818387;78;20928;-72
2021/11/28 10:49:10;;;;;;;15.20;13.03;;;;;;;8.65;70.72;99317.22;1817540;79;21019;-72
2021/11/28 10:51:44;;;;;;;17.35;13.88;;;;;;;8.63;70.68;99315.89;1817906;78;21075;-72
2021/11/28 10:54:30;;;;;;;15.10;12.15;;;;;;;8.62;70.74;99315.11;1816867;79;37610;-72
2021/11/28 10:57:04;;;;;;;15.85;12.63;;;;;;;8.63;70.72;99312.70;1816764;79;21123;-72
2021/11/28 10:59:32;;;;;;;16.62;13.80;;;;;;;8.60;70.69;99307.92;1816963;79;20940;-72
2021/11/28 11:01:58;;;;;;;14.87;12.43;;;;;;;8.57;70.81;99301.02;1818029;79;21038;-72
2021/11/28 11:04:25;;;;;;;15.25;11.70;;;;;;;8.59;70.90;99296.23;1818272;79;21427;-72
2021/11/28 11:07:09;;;;;;;18.02;15.08;;;;;;;8.61;70.98;99286.88;1818457;79;20979;-72
2021/11/28 11:09:42;;;;;;;19.05;15.08;;;;;;;8.62;71.02;99287.67;1818154;79;21049;-72
2021/11/28 11:12:35;;;;;;;15.88;13.45;;;;;;;8.65;71.14;99289.27;1817910;78;21034;-72
2021/11/28 11:15:03;;;;;;;18.65;14.60;;;;;;;8.70;71.22;99287.11;1817248;79;21538;-72
2021/11/28 11:17:34;;;;;;;17.52;13.98;;;;;;;8.74;71.22;99288.14;1818589;78;21031;-72
2021/11/28 11:20:04;;;;;;;16.93;13.58;;;;;;;8.77;71.26;99288.12;1817508;78;20991;-72
2021/11/28 11:22:31;;;;;;;18.82;15.08;;;;;;;8.81;71.35;99289.16;1816453;78;22386;-72
2021/11/28 11:25:16;;;;;;;16.82;13.32;;;;;;;8.84;71.38;99292.61;1818205;79;20935;-72
2021/11/28 11:27:44;;;;;;;19.92;14.73;;;;;;;8.90;71.47;99294.96;1817162;78;20984;-72
2021/11/28 11:30:25;;;;;;;16.97;14.28;;;;;;;8.96;71.49;99292.27;1818134;79;21066;-72
2021/11/28 11:33:01;;;;;;;18.50;15.98;;;;;;;9.00;71.52;99291.43;1817507;78;21066;-72
2021/11/28 11:35:30;;;;;;;17.27;14.23;;;;;;;9.04;71.54;99296.45;1818105;78;22053;-73
2021/11/28 11:38:05;;;;;;;18.48;15.48;;;;;;;9.09;71.63;99288.45;1819920;79;20901;-73
2021/11/28 11:40:33;;;;;;;15.10;12.43;;;;;;;9.16;71.68;99295.58;1821761;79;20988;-72
2021/11/28 11:42:59;;;;;;;16.27;14.25;;;;;;;9.26;71.77;99292.58;1821955;79;20959;-73
2021/11/28 11:45:29;;;;;;;19.87;15.50;;;;;;;9.32;71.79;99290.92;1820694;79;20975;-71
2021/11/28 11:47:56;;;;;;;19.35;16.05;;;;;;;9.40;71.79;99294.30;1818539;79;21100;-72